createdAt,value
2023-05-25T00:00:10.233Z,0.00
2023-05-25T00:01:10.165Z,0.00
2023-05-25T00:02:10.167Z,0.00
2023-05-25T00:03:10.123Z,0.00
2023-05-25T00:04:10.043Z,0.00
2023-05-25T00:05:09.842Z,0.00
2023-05-25T00:06:09.760Z,0.00
2023-05-25T00:07:09.683Z,0.00
2023-05-25T00:08:09.609Z,0.00
2023-05-25T00:09:09.528Z,0.00
2023-05-25T00:10:09.482Z,0.00
2023-05-25T00:11:09.368Z,0.00
2023-05-25T00:12:09.278Z,0.00
2023-05-25T00:13:09.202Z,0.00
2023-05-25T00:14:09.146Z,0.00
2023-05-25T00:15:09.062Z,0.00
2023-05-25T00:16:08.971Z,0.00
2023-05-25T00:17:08.921Z,0.00
2023-05-25T00:18:08.870Z,0.00
2023-05-25T00:19:08.739Z,0.00
2023-05-25T00:20:08.694Z,0.00
2023-05-25T00:21:08.578Z,0.00
2023-05-25T00:22:08.490Z,0.00
2023-05-25T00:23:08.401Z,0.00
2023-05-25T00:24:08.344Z,0.00
2023-05-25T00:25:08.243Z,0.00
2023-05-25T00:26:08.170Z,0.00
2023-05-25T00:27:08.094Z,0.00
2023-05-25T00:28:08.007Z,0.00
2023-05-25T00:29:07.954Z,0.00
2023-05-25T00:30:07.858Z,0.00
2023-05-25T00:31:07.846Z,0.00
2023-05-25T00:32:07.692Z,0.00
2023-05-25T00:33:07.631Z,0.00
2023-05-25T00:34:07.556Z,0.00
2023-05-25T00:35:07.462Z,0.00
2023-05-25T00:36:07.372Z,0.00
2023-05-25T00:37:07.297Z,0.00
2023-05-25T00:38:07.218Z,0.00
2023-05-25T00:39:07.148Z,0.00
2023-05-25T00:40:07.075Z,0.00
2023-05-25T00:41:06.979Z,0.00
2023-05-25T00:42:06.901Z,0.00
2023-05-25T00:43:06.820Z,0.00
2023-05-25T00:44:06.766Z,0.00
2023-05-25T00:45:06.662Z,0.00
2023-05-25T00:46:06.594Z,0.00
2023-05-25T00:47:06.505Z,0.00
2023-05-25T00:48:06.482Z,0.00
2023-05-25T00:49:06.374Z,0.00
2023-05-25T00:50:06.287Z,0.00
2023-05-25T00:51:06.195Z,0.00
2023-05-25T00:52:06.114Z,0.00
2023-05-25T00:53:06.024Z,0.00
2023-05-25T00:54:05.945Z,0.00
2023-05-25T00:55:05.871Z,0.00
2023-05-25T00:56:05.788Z,0.00
2023-05-25T00:57:05.734Z,0.00
2023-05-25T00:58:05.622Z,0.00
2023-05-25T00:59:05.545Z,0.00
2023-05-25T01:00:05.483Z,0.00
2023-05-25T01:01:05.397Z,0.00
2023-05-25T01:02:05.343Z,0.00
2023-05-25T01:03:05.295Z,0.00
2023-05-25T01:04:05.222Z,0.00
2023-05-25T01:05:05.070Z,0.00
2023-05-25T01:06:04.990Z,0.00
2023-05-25T01:07:04.919Z,0.00
2023-05-25T01:08:04.832Z,0.00
2023-05-25T01:09:04.755Z,0.00
2023-05-25T01:10:04.668Z,0.00
2023-05-25T01:11:04.644Z,0.00
2023-05-25T01:12:04.517Z,0.00
2023-05-25T01:13:04.439Z,0.00
2023-05-25T01:14:04.353Z,0.00
2023-05-25T01:15:04.270Z,0.00
2023-05-25T01:16:04.257Z,0.00
2023-05-25T01:17:04.117Z,0.00
2023-05-25T01:18:04.078Z,0.00
2023-05-25T01:19:03.951Z,0.00
2023-05-25T01:20:10.563Z,0.00
2023-05-25T01:21:03.826Z,0.00
2023-05-25T01:22:03.722Z,0.00
2023-05-25T01:23:03.638Z,0.00
2023-05-25T01:24:03.571Z,0.00
2023-05-25T01:25:03.480Z,0.00
2023-05-25T01:26:03.414Z,0.00
2023-05-25T01:27:03.324Z,0.00
2023-05-25T01:28:03.250Z,0.00
2023-05-25T01:29:03.167Z,0.00
2023-05-25T01:30:03.078Z,0.00
2023-05-25T01:31:03.014Z,0.00
2023-05-25T01:32:02.961Z,0.00
2023-05-25T01:33:02.971Z,0.00
2023-05-25T01:34:02.760Z,0.00
2023-05-25T01:35:02.685Z,0.00
2023-05-25T01:36:02.603Z,0.00
2023-05-25T01:37:02.531Z,0.00
2023-05-25T01:38:02.447Z,0.00
2023-05-25T01:39:02.363Z,0.00
2023-05-25T01:40:02.287Z,0.00
2023-05-25T01:41:02.205Z,0.00
2023-05-25T01:42:02.123Z,0.00
2023-05-25T01:43:02.062Z,0.00
2023-05-25T01:44:01.971Z,0.00
2023-05-25T01:45:01.894Z,0.00
2023-05-25T01:46:01.854Z,0.00
2023-05-25T01:47:01.734Z,0.00
2023-05-25T01:48:01.668Z,0.00
2023-05-25T01:49:01.567Z,0.00
2023-05-25T01:50:01.518Z,0.00
2023-05-25T01:51:01.413Z,0.00
2023-05-25T01:52:01.391Z,0.00
2023-05-25T01:53:01.248Z,0.00
2023-05-25T01:54:01.167Z,0.00
2023-05-25T01:55:01.119Z,0.00
2023-05-25T01:56:01.009Z,0.00
2023-05-25T01:57:00.931Z,0.00
2023-05-25T01:58:00.852Z,0.00
2023-05-25T01:59:00.776Z,0.00
2023-05-25T02:00:00.697Z,0.00
2023-05-25T02:01:00.639Z,0.00
2023-05-25T02:02:00.615Z,0.00
2023-05-25T02:03:00.507Z,0.00
2023-05-25T02:04:00.414Z,0.00
2023-05-25T02:05:00.290Z,0.00
2023-05-25T02:06:00.215Z,0.00
2023-05-25T02:07:00.135Z,0.00
2023-05-25T02:08:00.066Z,0.00
2023-05-25T02:08:59.982Z,0.00
2023-05-25T02:09:59.897Z,0.00
2023-05-25T02:10:59.818Z,0.00
2023-05-25T02:11:59.736Z,0.00
2023-05-25T02:12:59.661Z,0.00
2023-05-25T02:13:59.582Z,0.00
2023-05-25T02:14:59.496Z,0.00
2023-05-25T02:15:59.459Z,0.00
2023-05-25T02:16:59.346Z,0.00
2023-05-25T02:17:59.294Z,0.00
2023-05-25T02:18:59.188Z,0.00
2023-05-25T02:19:59.233Z,0.00
2023-05-25T02:20:59.036Z,0.00
2023-05-25T02:21:58.945Z,0.00
2023-05-25T02:22:58.873Z,0.00
2023-05-25T02:23:58.788Z,0.00
2023-05-25T02:24:58.709Z,0.00
2023-05-25T02:25:58.708Z,0.00
2023-05-25T02:26:58.557Z,0.00
2023-05-25T02:27:58.471Z,0.00
2023-05-25T02:28:58.387Z,0.00
2023-05-25T02:29:58.317Z,0.00
2023-05-25T02:30:58.267Z,0.00
2023-05-25T02:31:58.150Z,0.00
2023-05-25T02:32:58.121Z,0.00
2023-05-25T02:33:58.012Z,0.00
2023-05-25T02:34:57.915Z,0.00
2023-05-25T02:35:57.834Z,0.00
2023-05-25T02:36:57.773Z,0.00
2023-05-25T02:37:57.677Z,0.00
2023-05-25T02:38:57.594Z,0.00
2023-05-25T02:39:57.516Z,0.00
2023-05-25T02:40:57.442Z,0.00
2023-05-25T02:41:57.378Z,0.00
2023-05-25T02:42:57.295Z,0.00
2023-05-25T02:43:57.205Z,0.00
2023-05-25T02:44:57.128Z,0.00
2023-05-25T02:45:57.038Z,0.00
2023-05-25T02:46:57.030Z,0.00
2023-05-25T02:47:56.916Z,0.00
2023-05-25T02:48:56.800Z,0.00
2023-05-25T02:49:56.731Z,0.00
2023-05-25T02:50:56.649Z,0.00
2023-05-25T02:51:56.559Z,0.00
2023-05-25T02:52:56.478Z,4.00
2023-05-25T02:53:56.401Z,4.00
2023-05-25T02:54:56.321Z,4.00
2023-05-25T02:55:56.237Z,0.00
2023-05-25T02:56:56.167Z,4.00
2023-05-25T02:57:56.086Z,4.00
2023-05-25T02:58:55.997Z,8.00
2023-05-25T02:59:55.922Z,4.00
2023-05-25T03:00:55.890Z,4.00
2023-05-25T03:01:55.767Z,8.00
2023-05-25T03:02:55.798Z,8.00
2023-05-25T03:03:55.661Z,8.00
2023-05-25T03:04:55.522Z,8.00
2023-05-25T03:05:55.445Z,12.00
2023-05-25T03:06:55.373Z,12.00
2023-05-25T03:07:55.287Z,12.00
2023-05-25T03:08:55.241Z,16.00
2023-05-25T03:09:55.129Z,16.00
2023-05-25T03:10:55.054Z,16.00
2023-05-25T03:11:54.976Z,16.00
2023-05-25T03:12:54.894Z,20.00
2023-05-25T03:13:54.808Z,20.00
2023-05-25T03:14:54.759Z,20.00
2023-05-25T03:15:54.664Z,24.00
2023-05-25T03:16:54.599Z,24.00
2023-05-25T03:17:54.553Z,28.00
2023-05-25T03:18:54.411Z,32.00
2023-05-25T03:19:54.345Z,32.00
2023-05-25T03:20:54.251Z,36.00
2023-05-25T03:21:54.176Z,40.00
2023-05-25T03:22:54.095Z,44.00
2023-05-25T03:23:54.017Z,48.00
2023-05-25T03:24:53.934Z,52.00
2023-05-25T03:25:53.859Z,56.00
2023-05-25T03:26:53.773Z,64.00
2023-05-25T03:27:53.701Z,72.00
2023-05-25T03:28:53.619Z,80.00
2023-05-25T03:29:53.532Z,88.00
2023-05-25T03:30:53.479Z,96.00
2023-05-25T03:31:53.421Z,108.00
2023-05-25T03:32:53.322Z,116.00
2023-05-25T03:33:53.215Z,128.00
2023-05-25T03:34:53.145Z,136.00
2023-05-25T03:35:53.065Z,148.00
2023-05-25T03:36:52.980Z,156.00
2023-05-25T03:37:52.896Z,172.00
2023-05-25T03:38:52.821Z,180.00
2023-05-25T03:39:52.751Z,196.00
2023-05-25T03:40:52.657Z,216.00
2023-05-25T03:41:52.597Z,232.00
2023-05-25T03:42:52.506Z,248.00
2023-05-25T03:43:52.435Z,268.00
2023-05-25T03:44:52.343Z,284.00
2023-05-25T03:45:52.275Z,316.00
2023-05-25T03:46:52.188Z,340.00
2023-05-25T03:47:52.133Z,368.00
2023-05-25T03:48:52.025Z,380.00
2023-05-25T03:49:51.947Z,392.00
2023-05-25T03:50:51.881Z,400.00
2023-05-25T03:51:51.787Z,408.00
2023-05-25T03:52:51.703Z,420.00
2023-05-25T03:53:51.621Z,428.00
2023-05-25T03:54:51.551Z,436.00
2023-05-25T03:55:51.469Z,448.00
2023-05-25T03:56:51.383Z,468.00
2023-05-25T03:57:51.306Z,488.00
2023-05-25T03:58:51.229Z,512.00
2023-05-25T03:59:51.150Z,532.00
2023-05-25T04:00:51.066Z,548.00
2023-05-25T04:01:50.993Z,560.00
2023-05-25T04:02:50.945Z,572.00
2023-05-25T04:03:50.991Z,584.00
2023-05-25T04:04:50.887Z,588.00
2023-05-25T04:05:50.670Z,588.00
2023-05-25T04:06:50.593Z,576.00
2023-05-25T04:07:50.515Z,564.00
2023-05-25T04:08:50.426Z,548.00
2023-05-25T04:09:50.349Z,536.00
2023-05-25T04:10:50.267Z,528.00
2023-05-25T04:11:50.187Z,524.00
2023-05-25T04:12:50.116Z,524.00
2023-05-25T04:13:50.034Z,524.00
2023-05-25T04:14:49.951Z,524.00
2023-05-25T04:15:49.870Z,524.00
2023-05-25T04:16:49.896Z,556.00
2023-05-25T04:17:49.768Z,592.00
2023-05-25T04:18:49.631Z,648.00
2023-05-25T04:19:49.549Z,708.00
2023-05-25T04:20:49.482Z,772.00
2023-05-25T04:21:49.391Z,812.00
2023-05-25T04:22:49.316Z,896.00
2023-05-25T04:23:49.231Z,976.00
2023-05-25T04:24:49.152Z,1048.00
2023-05-25T04:25:49.076Z,1104.00
2023-05-25T04:26:49.005Z,1164.00
2023-05-25T04:27:48.921Z,1208.00
2023-05-25T04:28:48.836Z,1284.00
2023-05-25T04:29:48.761Z,1376.00
2023-05-25T04:30:48.676Z,1504.00
2023-05-25T04:31:48.623Z,1536.00
2023-05-25T04:32:48.607Z,1552.00
2023-05-25T04:33:48.451Z,1500.00
2023-05-25T04:34:48.414Z,1492.00
2023-05-25T04:35:48.279Z,1600.00
2023-05-25T04:36:48.198Z,1616.00
2023-05-25T04:37:48.121Z,1636.00
2023-05-25T04:38:48.110Z,1660.00
2023-05-25T04:39:47.958Z,1676.00
2023-05-25T04:40:47.878Z,1672.00
2023-05-25T04:41:47.800Z,1644.00
2023-05-25T04:42:47.730Z,1728.00
2023-05-25T04:44:04.731Z,1696.00
2023-05-25T04:44:47.560Z,1748.00
2023-05-25T04:45:47.731Z,1772.00
2023-05-25T04:46:47.406Z,1800.00
2023-05-25T04:47:47.364Z,1824.00
2023-05-25T04:48:47.248Z,1856.00
2023-05-25T04:49:47.165Z,1884.00
2023-05-25T04:50:47.087Z,1928.00
2023-05-25T04:51:47.010Z,1980.00
2023-05-25T04:52:46.931Z,2000.00
2023-05-25T04:53:46.852Z,2044.00
2023-05-25T04:54:46.773Z,2092.00
2023-05-25T04:55:46.858Z,2112.00
2023-05-25T04:56:46.621Z,2144.00
2023-05-25T04:57:46.533Z,2264.00
2023-05-25T04:58:46.457Z,2372.00
2023-05-25T04:59:46.368Z,2408.00
2023-05-25T05:00:46.437Z,2468.00
2023-05-25T05:01:46.340Z,2540.00
2023-05-25T05:02:46.229Z,2584.00
2023-05-25T05:03:46.104Z,2528.00
2023-05-25T05:04:45.974Z,2392.00
2023-05-25T05:05:46.074Z,2388.00
2023-05-25T05:06:45.821Z,2296.00
2023-05-25T05:07:45.738Z,2200.00
2023-05-25T05:08:45.661Z,2124.00
2023-05-25T05:09:45.587Z,2080.00
2023-05-25T05:10:45.706Z,2048.00
2023-05-25T05:11:45.426Z,2000.00
2023-05-25T05:12:45.339Z,2004.00
2023-05-25T05:13:45.268Z,2112.00
2023-05-25T05:14:45.210Z,2116.00
2023-05-25T05:15:45.243Z,2116.00
2023-05-25T05:16:45.053Z,2128.00
2023-05-25T05:17:45.000Z,2132.00
2023-05-25T05:18:44.866Z,2136.00
2023-05-25T05:19:44.787Z,2144.00
2023-05-25T05:20:44.813Z,2156.00
2023-05-25T05:21:44.638Z,2168.00
2023-05-25T05:22:44.550Z,2176.00
2023-05-25T05:23:44.473Z,2176.00
2023-05-25T05:24:44.416Z,2184.00
2023-05-25T05:25:44.517Z,2192.00
2023-05-25T05:26:55.581Z,2204.00
2023-05-25T05:27:44.151Z,2212.00
2023-05-25T05:28:44.072Z,2216.00
2023-05-25T05:29:43.990Z,2224.00
2023-05-25T05:30:43.910Z,2240.00
2023-05-25T05:31:43.856Z,2256.00
2023-05-25T05:32:45.310Z,2260.00
2023-05-25T05:33:43.742Z,2260.00
2023-05-25T05:34:43.596Z,2280.00
2023-05-25T05:35:43.780Z,2292.00
2023-05-25T05:36:55.800Z,2300.00
2023-05-25T05:37:43.369Z,2312.00
2023-05-25T05:38:43.276Z,2320.00
2023-05-25T05:39:43.196Z,2320.00
2023-05-25T05:40:43.132Z,2320.00
2023-05-25T05:41:43.042Z,2340.00
2023-05-25T05:42:42.967Z,2348.00
2023-05-25T05:43:42.897Z,2344.00
2023-05-25T05:44:42.800Z,2344.00
2023-05-25T05:45:43.068Z,2348.00
2023-05-25T05:46:42.716Z,2348.00
2023-05-25T05:47:42.592Z,2356.00
2023-05-25T05:48:42.496Z,2372.00
2023-05-25T05:49:42.411Z,2380.00
2023-05-25T05:50:42.626Z,2392.00
2023-05-25T05:51:42.250Z,2396.00
2023-05-25T05:52:42.171Z,2400.00
2023-05-25T05:53:42.092Z,2408.00
2023-05-25T05:54:42.015Z,2408.00
2023-05-25T05:55:42.011Z,2408.00
2023-05-25T05:56:41.851Z,2416.00
2023-05-25T05:57:41.787Z,2436.00
2023-05-25T05:58:41.697Z,2592.00
2023-05-25T05:59:41.621Z,2688.00
2023-05-25T06:00:41.548Z,2780.00
2023-05-25T06:01:41.497Z,3396.00
2023-05-25T06:02:42.039Z,4324.00
2023-05-25T06:03:41.298Z,4824.00
2023-05-25T06:04:41.222Z,4080.00
2023-05-25T06:05:41.199Z,3528.00
2023-05-25T06:06:41.069Z,3200.00
2023-05-25T06:07:40.987Z,2568.00
2023-05-25T06:08:40.921Z,2500.00
2023-05-25T06:09:40.828Z,2460.00
2023-05-25T06:10:40.757Z,2464.00
2023-05-25T06:11:40.669Z,2464.00
2023-05-25T06:12:40.586Z,2468.00
2023-05-25T06:13:40.514Z,2476.00
2023-05-25T06:14:40.456Z,2472.00
2023-05-25T06:15:40.365Z,2476.00
2023-05-25T06:16:40.280Z,2480.00
2023-05-25T06:17:40.233Z,2484.00
2023-05-25T06:18:40.124Z,2488.00
2023-05-25T06:19:40.035Z,2488.00
2023-05-25T06:20:39.991Z,2496.00
2023-05-25T06:21:39.881Z,2496.00
2023-05-25T06:22:39.808Z,2500.00
2023-05-25T06:23:39.737Z,2508.00
2023-05-25T06:24:39.651Z,2512.00
2023-05-25T06:25:39.562Z,2520.00
2023-05-25T06:26:39.484Z,2516.00
2023-05-25T06:27:39.408Z,2520.00
2023-05-25T06:28:39.340Z,2524.00
2023-05-25T06:29:39.249Z,2524.00
2023-05-25T06:30:39.178Z,2524.00
2023-05-25T06:31:39.126Z,2532.00
2023-05-25T06:32:39.085Z,2540.00
2023-05-25T06:33:38.935Z,2540.00
2023-05-25T06:34:38.864Z,2544.00
2023-05-25T06:35:38.784Z,2552.00
2023-05-25T06:36:38.704Z,2556.00
2023-05-25T06:37:38.623Z,2556.00
2023-05-25T06:38:38.540Z,2568.00
2023-05-25T06:39:38.467Z,2576.00
2023-05-25T06:40:38.408Z,2580.00
2023-05-25T06:41:38.304Z,2584.00
2023-05-25T06:42:38.234Z,2588.00
2023-05-25T06:43:38.148Z,2600.00
2023-05-25T06:44:38.076Z,2608.00
2023-05-25T06:45:37.990Z,2616.00
2023-05-25T06:46:37.936Z,2616.00
2023-05-25T06:47:37.839Z,2620.00
2023-05-25T06:48:37.753Z,2636.00
2023-05-25T06:49:37.686Z,2636.00
2023-05-25T06:50:37.599Z,2644.00
2023-05-25T06:51:37.584Z,2656.00
2023-05-25T06:52:37.453Z,2664.00
2023-05-25T06:53:37.356Z,2664.00
2023-05-25T06:54:37.290Z,2668.00
2023-05-25T06:55:37.210Z,2676.00
2023-05-25T06:56:37.217Z,2680.00
2023-05-25T06:57:37.054Z,2696.00
2023-05-25T06:58:36.966Z,2696.00
2023-05-25T06:59:36.890Z,2700.00
2023-05-25T07:00:36.809Z,2704.00
2023-05-25T07:01:36.879Z,2712.00
2023-05-25T07:02:36.704Z,2716.00
2023-05-25T07:03:36.582Z,2716.00
2023-05-25T07:04:36.523Z,2724.00
2023-05-25T07:05:36.423Z,2724.00
2023-05-25T07:06:36.338Z,2724.00
2023-05-25T07:07:36.266Z,2732.00
2023-05-25T07:08:36.188Z,2736.00
2023-05-25T07:09:36.108Z,2736.00
2023-05-25T07:10:36.030Z,2740.00
2023-05-25T07:11:35.956Z,2744.00
2023-05-25T07:12:35.877Z,2744.00
2023-05-25T07:13:35.791Z,2748.00
2023-05-25T07:14:35.714Z,2748.00
2023-05-25T07:15:35.637Z,2752.00
2023-05-25T07:16:35.659Z,2752.00
2023-05-25T07:17:35.496Z,2756.00
2023-05-25T07:18:35.398Z,2764.00
2023-05-25T07:19:35.328Z,2760.00
2023-05-25T07:20:35.336Z,2768.00
2023-05-25T07:21:35.167Z,2768.00
2023-05-25T07:22:35.085Z,2772.00
2023-05-25T07:23:35.013Z,2776.00
2023-05-25T07:24:34.943Z,2776.00
2023-05-25T07:25:34.853Z,2780.00
2023-05-25T07:26:34.779Z,2784.00
2023-05-25T07:27:34.697Z,2784.00
2023-05-25T07:28:34.628Z,2780.00
2023-05-25T07:29:34.544Z,2788.00
2023-05-25T07:30:34.461Z,2792.00
2023-05-25T07:31:34.399Z,2800.00
2023-05-25T07:32:34.317Z,2800.00
2023-05-25T07:33:34.240Z,2804.00
2023-05-25T07:34:34.146Z,2804.00
2023-05-25T07:35:34.075Z,2800.00
2023-05-25T07:36:34.002Z,2804.00
2023-05-25T07:37:33.925Z,2804.00
2023-05-25T07:38:33.839Z,2800.00
2023-05-25T07:39:33.768Z,2804.00
2023-05-25T07:40:33.687Z,2804.00
2023-05-25T07:41:33.607Z,2804.00
2023-05-25T07:42:33.527Z,2804.00
2023-05-25T07:43:33.441Z,2808.00
2023-05-25T07:44:33.374Z,2812.00
2023-05-25T07:45:33.286Z,2816.00
2023-05-25T07:46:33.254Z,2820.00
2023-05-25T07:47:33.159Z,2824.00
2023-05-25T07:48:33.063Z,2824.00
2023-05-25T07:49:33.003Z,2824.00
2023-05-25T07:50:32.916Z,2824.00
2023-05-25T07:51:32.858Z,2828.00
2023-05-25T07:52:32.754Z,2840.00
2023-05-25T07:53:32.671Z,2836.00
2023-05-25T07:54:32.626Z,2840.00
2023-05-25T07:55:32.513Z,2840.00
2023-05-25T07:56:32.441Z,2844.00
2023-05-25T07:57:32.358Z,2848.00
2023-05-25T07:58:32.282Z,2848.00
2023-05-25T07:59:32.196Z,2844.00
2023-05-25T08:00:32.143Z,2844.00
2023-05-25T08:01:32.039Z,2848.00
2023-05-25T08:02:32.050Z,2844.00
2023-05-25T08:03:44.280Z,2852.00
2023-05-25T08:04:31.959Z,2852.00
2023-05-25T08:05:31.734Z,2856.00
2023-05-25T08:06:31.659Z,2860.00
2023-05-25T08:07:31.833Z,2864.00
2023-05-25T08:08:31.498Z,2868.00
2023-05-25T08:09:31.427Z,2872.00
2023-05-25T08:10:31.365Z,2876.00
2023-05-25T08:11:31.268Z,2876.00
2023-05-25T08:12:47.058Z,2880.00
2023-05-25T08:13:31.104Z,2880.00
2023-05-25T08:14:31.039Z,2884.00
2023-05-25T08:15:30.956Z,2888.00
2023-05-25T08:16:30.915Z,2892.00
2023-05-25T08:17:30.821Z,2896.00
2023-05-25T08:18:30.730Z,2896.00
2023-05-25T08:19:30.638Z,2908.00
2023-05-25T08:20:30.610Z,2916.00
2023-05-25T08:21:31.025Z,2912.00
2023-05-25T08:22:30.413Z,2912.00
2023-05-25T08:23:30.329Z,2920.00
2023-05-25T08:24:30.256Z,2932.00
2023-05-25T08:25:30.182Z,2936.00
2023-05-25T08:26:41.837Z,2944.00
2023-05-25T08:27:30.019Z,2948.00
2023-05-25T08:28:29.946Z,2948.00
2023-05-25T08:29:29.864Z,2956.00
2023-05-25T08:30:29.783Z,2952.00
2023-05-25T08:31:29.749Z,2956.00
2023-05-25T08:32:29.656Z,2972.00
2023-05-25T08:33:29.564Z,2972.00
2023-05-25T08:34:29.472Z,2980.00
2023-05-25T08:35:29.398Z,2984.00
2023-05-25T08:36:29.321Z,2992.00
2023-05-25T08:37:29.255Z,3000.00
2023-05-25T08:38:29.169Z,3004.00
2023-05-25T08:39:29.089Z,2992.00
2023-05-25T08:40:29.015Z,3028.00
2023-05-25T08:41:28.930Z,3032.00
2023-05-25T08:42:28.867Z,3040.00
2023-05-25T08:43:28.781Z,3032.00
2023-05-25T08:44:28.705Z,3048.00
2023-05-25T08:45:35.832Z,3056.00
2023-05-25T08:46:28.550Z,3064.00
2023-05-25T08:47:28.496Z,3072.00
2023-05-25T08:48:40.045Z,3080.00
2023-05-25T08:49:28.381Z,3084.00
2023-05-25T08:50:28.236Z,3088.00
2023-05-25T08:51:28.163Z,3092.00
2023-05-25T08:52:28.080Z,3092.00
2023-05-25T08:53:28.005Z,3092.00
2023-05-25T08:54:27.937Z,3100.00
2023-05-25T08:55:27.868Z,3108.00
2023-05-25T08:56:27.777Z,3120.00
2023-05-25T08:57:27.707Z,3124.00
2023-05-25T08:58:27.616Z,3128.00
2023-05-25T08:59:27.565Z,3132.00
2023-05-25T09:00:27.470Z,3132.00
2023-05-25T09:01:27.445Z,3140.00
2023-05-25T09:02:27.329Z,3156.00
2023-05-25T09:03:27.310Z,3172.00
2023-05-25T09:04:27.173Z,3164.00
2023-05-25T09:05:27.082Z,3164.00
2023-05-25T09:06:27.018Z,3160.00
2023-05-25T09:07:26.929Z,3168.00
2023-05-25T09:08:26.853Z,3168.00
2023-05-25T09:09:26.773Z,3176.00
2023-05-25T09:10:26.696Z,3176.00
2023-05-25T09:11:37.290Z,3180.00
2023-05-25T09:12:26.542Z,3180.00
2023-05-25T09:13:26.463Z,3184.00
2023-05-25T09:14:26.390Z,3180.00
2023-05-25T09:15:26.309Z,3184.00
2023-05-25T09:16:26.326Z,3180.00
2023-05-25T09:17:26.153Z,3188.00
2023-05-25T09:18:26.169Z,3196.00
2023-05-25T09:19:26.005Z,3200.00
2023-05-25T09:20:26.005Z,3208.00
2023-05-25T09:21:25.849Z,3216.00
2023-05-25T09:22:25.775Z,3224.00
2023-05-25T09:23:25.699Z,3236.00
2023-05-25T09:24:25.617Z,3244.00
2023-05-25T09:25:25.543Z,3248.00
2023-05-25T09:26:25.467Z,3252.00
2023-05-25T09:27:25.392Z,3260.00
2023-05-25T09:28:27.344Z,3264.00
2023-05-25T09:29:25.241Z,3256.00
2023-05-25T09:30:25.173Z,3260.00
2023-05-25T09:31:25.153Z,3264.00
2023-05-25T09:32:25.112Z,3276.00
2023-05-25T09:33:24.946Z,3284.00
2023-05-25T09:34:24.867Z,3300.00
2023-05-25T09:35:24.778Z,3320.00
2023-05-25T09:36:24.772Z,3344.00
2023-05-25T09:37:24.712Z,3352.00
2023-05-25T09:38:24.705Z,3368.00
2023-05-25T09:39:24.601Z,3380.00
2023-05-25T09:40:24.399Z,3384.00
2023-05-25T09:41:24.321Z,3396.00
2023-05-25T09:42:24.254Z,3416.00
2023-05-25T09:43:36.516Z,3420.00
2023-05-25T09:44:24.095Z,3428.00
2023-05-25T09:45:24.014Z,3428.00
2023-05-25T09:46:23.972Z,3436.00
2023-05-25T09:47:23.890Z,3448.00
2023-05-25T09:48:23.783Z,3456.00
2023-05-25T09:49:23.722Z,3468.00
2023-05-25T09:50:23.638Z,3468.00
2023-05-25T09:51:23.556Z,3484.00
2023-05-25T09:52:23.497Z,3508.00
2023-05-25T09:53:23.400Z,3508.00
2023-05-25T09:54:23.330Z,3524.00
2023-05-25T09:55:23.258Z,3548.00
2023-05-25T09:56:23.175Z,3560.00
2023-05-25T09:57:23.103Z,3576.00
2023-05-25T09:58:23.020Z,3600.00
2023-05-25T09:59:22.944Z,3628.00
2023-05-25T10:00:22.865Z,3644.00
2023-05-25T10:01:22.819Z,3664.00
2023-05-25T10:02:22.751Z,3704.00
2023-05-25T10:03:22.686Z,3752.00
2023-05-25T10:04:22.573Z,3764.00
2023-05-25T10:05:22.482Z,3788.00
2023-05-25T10:06:22.418Z,3792.00
2023-05-25T10:07:22.326Z,3808.00
2023-05-25T10:08:22.255Z,3816.00
2023-05-25T10:09:22.193Z,3844.00
2023-05-25T10:10:22.104Z,3872.00
2023-05-25T10:11:22.025Z,3880.00
2023-05-25T10:12:21.952Z,3892.00
2023-05-25T10:13:21.884Z,3936.00
2023-05-25T10:14:21.798Z,3964.00
2023-05-25T10:15:21.720Z,4004.00
2023-05-25T10:16:21.664Z,4040.00
2023-05-25T10:17:21.584Z,4048.00
2023-05-25T10:18:21.493Z,4060.00
2023-05-25T10:19:21.419Z,4072.00
2023-05-25T10:20:21.379Z,4084.00
2023-05-25T10:21:21.262Z,4088.00
2023-05-25T10:22:21.202Z,4108.00
2023-05-25T10:23:21.113Z,4128.00
2023-05-25T10:24:21.043Z,4116.00
2023-05-25T10:25:20.972Z,4156.00
2023-05-25T10:26:20.889Z,4188.00
2023-05-25T10:27:26.908Z,4220.00
2023-05-25T10:28:20.728Z,4256.00
2023-05-25T10:29:20.671Z,4288.00
2023-05-25T10:30:20.585Z,4312.00
2023-05-25T10:31:20.526Z,4360.00
2023-05-25T10:32:20.450Z,4408.00
2023-05-25T10:33:20.392Z,4472.00
2023-05-25T10:34:20.278Z,4552.00
2023-05-25T10:35:20.203Z,4632.00
2023-05-25T10:36:20.120Z,4680.00
2023-05-25T10:37:20.050Z,4740.00
2023-05-25T10:38:19.976Z,4792.00
2023-05-25T10:39:19.900Z,4852.00
2023-05-25T10:40:19.819Z,4896.00
2023-05-25T10:41:19.751Z,4936.00
2023-05-25T10:42:19.669Z,4992.00
2023-05-25T10:43:19.598Z,4820.00
2023-05-25T10:44:19.521Z,5060.00
2023-05-25T10:45:19.444Z,5080.00
2023-05-25T10:46:19.400Z,5100.00
2023-05-25T10:47:19.417Z,5120.00
2023-05-25T10:48:19.211Z,5132.00
2023-05-25T10:49:19.142Z,5176.00
2023-05-25T10:50:19.066Z,5216.00
2023-05-25T10:51:18.991Z,5260.00
2023-05-25T10:52:18.923Z,5308.00
2023-05-25T10:53:18.847Z,5344.00
2023-05-25T10:54:18.765Z,5372.00
2023-05-25T10:55:18.692Z,5388.00
2023-05-25T10:56:18.623Z,5420.00
2023-05-25T10:57:18.548Z,5468.00
2023-05-25T10:58:18.465Z,5508.00
2023-05-25T10:59:18.392Z,5536.00
2023-05-25T11:00:18.361Z,5576.00
2023-05-25T11:01:18.300Z,5608.00
2023-05-25T11:02:18.226Z,5632.00
2023-05-25T11:03:18.085Z,5656.00
2023-05-25T11:04:18.048Z,5672.00
2023-05-25T11:05:17.961Z,5696.00
2023-05-25T11:06:17.861Z,5732.00
2023-05-25T11:07:17.785Z,5756.00
2023-05-25T11:08:17.710Z,5796.00
2023-05-25T11:09:17.640Z,5828.00
2023-05-25T11:10:17.556Z,5860.00
2023-05-25T11:11:17.482Z,5892.00
2023-05-25T11:12:17.418Z,5924.00
2023-05-25T11:13:17.347Z,5960.00
2023-05-25T11:14:17.264Z,5980.00
2023-05-25T11:15:17.185Z,6028.00
2023-05-25T11:16:17.132Z,6060.00
2023-05-25T11:17:17.145Z,6104.00
2023-05-25T11:18:16.961Z,6156.00
2023-05-25T11:19:16.892Z,6184.00
2023-05-25T11:20:16.843Z,6224.00
2023-05-25T11:21:16.737Z,6244.00
2023-05-25T11:22:16.693Z,6296.00
2023-05-25T11:23:16.586Z,6316.00
2023-05-25T11:24:16.526Z,6336.00
2023-05-25T11:25:16.442Z,6364.00
2023-05-25T11:26:16.369Z,6384.00
2023-05-25T11:27:16.298Z,6424.00
2023-05-25T11:28:16.221Z,6440.00
2023-05-25T11:29:16.212Z,6472.00
2023-05-25T11:30:16.068Z,6508.00
2023-05-25T11:31:16.036Z,6532.00
2023-05-25T11:32:15.929Z,6568.00
2023-05-25T11:33:15.901Z,6596.00
2023-05-25T11:34:15.797Z,6640.00
2023-05-25T11:35:15.705Z,6676.00
2023-05-25T11:36:15.632Z,6708.00
2023-05-25T11:37:15.553Z,6732.00
2023-05-25T11:38:15.480Z,6772.00
2023-05-25T11:39:22.419Z,6812.00
2023-05-25T11:40:15.436Z,6844.00
2023-05-25T11:41:15.251Z,6860.00
2023-05-25T11:42:15.178Z,6924.00
2023-05-25T11:43:15.107Z,6956.00
2023-05-25T11:44:15.030Z,6992.00
2023-05-25T11:45:14.959Z,7040.00
2023-05-25T11:46:14.917Z,7096.00
2023-05-25T11:47:14.807Z,7140.00
2023-05-25T11:48:14.827Z,7176.00
2023-05-25T11:49:14.664Z,7212.00
2023-05-25T11:50:14.586Z,7256.00
2023-05-25T11:51:14.518Z,7280.00
2023-05-25T11:52:14.436Z,7316.00
2023-05-25T11:53:14.357Z,7352.00
2023-05-25T11:54:14.288Z,7400.00
2023-05-25T11:55:14.214Z,7432.00
2023-05-25T11:56:18.131Z,7472.00
2023-05-25T11:57:14.071Z,7512.00
2023-05-25T11:58:14.002Z,7540.00
2023-05-25T11:59:13.931Z,7564.00
2023-05-25T12:00:13.855Z,7588.00
2023-05-25T12:01:13.778Z,7612.00
2023-05-25T12:02:13.736Z,7648.00
2023-05-25T12:04:13.677Z,7720.00
2023-05-25T12:05:13.488Z,7764.00
2023-05-25T12:06:13.397Z,7796.00
2023-05-25T12:07:13.329Z,7844.00
2023-05-25T12:08:13.259Z,7792.00
2023-05-25T12:09:13.179Z,7924.00
2023-05-25T12:10:13.103Z,7720.00
2023-05-25T12:11:13.039Z,7848.00
2023-05-25T12:12:12.964Z,7900.00
2023-05-25T12:13:12.904Z,7984.00
2023-05-25T12:14:12.808Z,8060.00
2023-05-25T12:15:12.738Z,6908.00
2023-05-25T12:16:12.699Z,8172.00
2023-05-25T12:17:12.689Z,8224.00
2023-05-25T12:18:12.546Z,8240.00
2023-05-25T12:19:12.444Z,8312.00
2023-05-25T12:20:12.404Z,8360.00
2023-05-25T12:21:12.299Z,8404.00
2023-05-25T12:22:12.224Z,8452.00
2023-05-25T12:23:12.156Z,8480.00
2023-05-25T12:24:12.085Z,8516.00
2023-05-25T12:25:12.007Z,8560.00